Time;durP1;ratioP1;P1;durP2;ratioP2;P2;SDS_P1;SDS_P2;PMS_P1;PMS_P2;Temp;Humidity;BMP_temperature;BMP_pressure;BME280_temperature;BME280_humidity;BME280_pressure;Samples;Min_cycle;Max_cycle;Signal;HPM_P1;HPM_P2
2023/05/03 00:01:52;;;;;;;3.60;2.13;;;;;;;17.13;40.95;94911.59;5127093;27;20225;-48
2023/05/03 00:04:22;;;;;;;3.40;2.50;;;;;;;17.12;40.90;94901.44;5122202;27;20192;-48
2023/05/03 00:06:48;;;;;;;2.17;2.03;;;;;;;17.10;40.76;94903.38;5131234;27;20199;-49
2023/05/03 00:09:15;;;;;;;3.00;2.13;;;;;;;17.09;40.88;94912.09;5131153;27;20195;-49
2023/05/03 00:11:42;;;;;;;2.87;2.40;;;;;;;17.02;40.59;94905.06;5130841;27;20744;-48
2023/05/03 00:14:09;;;;;;;4.17;1.97;;;;;;;17.06;40.84;94918.44;5130636;27;20301;-48
2023/05/03 00:16:36;;;;;;;2.40;2.20;;;;;;;17.03;40.64;94929.09;5130826;27;20193;-49
2023/05/03 00:19:03;;;;;;;4.07;2.10;;;;;;;16.99;40.66;94902.00;5130614;27;20241;-49
2023/05/03 00:21:31;;;;;;;3.90;2.43;;;;;;;16.91;40.67;94900.28;5130990;27;20200;-49
2023/05/03 00:23:58;;;;;;;4.93;2.33;;;;;;;16.96;40.53;94918.63;5130575;27;20285;-50
2023/05/03 00:26:25;;;;;;;5.27;2.10;;;;;;;16.92;40.59;94912.19;5130547;27;20629;-48
2023/05/03 00:28:52;;;;;;;2.93;2.10;;;;;;;16.91;40.48;94909.78;5130754;27;20287;-50
2023/05/03 00:31:19;;;;;;;3.47;1.97;;;;;;;16.87;40.61;94904.16;5130228;27;20606;-48
2023/05/03 00:33:46;;;;;;;2.60;2.40;;;;;;;16.87;40.54;94916.28;5130286;27;20220;-48
2023/05/03 00:36:14;;;;;;;2.73;2.27;;;;;;;16.82;40.55;94911.63;5130354;27;20604;-49
2023/05/03 00:38:43;;;;;;;3.80;2.00;;;;;;;16.82;40.69;94910.81;5130635;27;20653;-50
2023/05/03 00:41:11;;;;;;;2.20;2.07;;;;;;;16.79;40.71;94911.97;5131348;27;20200;-57
2023/05/03 00:43:38;;;;;;;2.07;1.87;;;;;;;16.77;40.49;94924.25;5131145;27;20698;-49
2023/05/03 00:46:06;;;;;;;2.87;2.47;;;;;;;16.75;40.54;94929.59;5130208;27;20203;-49
2023/05/03 00:48:34;;;;;;;3.93;2.20;;;;;;;16.70;40.61;94924.09;5129990;27;20199;-51
2023/05/03 00:51:03;;;;;;;2.13;1.90;;;;;;;16.71;40.53;94935.22;5130273;27;20188;-47
2023/05/03 00:53:31;;;;;;;4.17;2.17;;;;;;;16.70;40.54;94944.75;5130104;27;20257;-49
2023/05/03 00:56:01;;;;;;;2.27;2.07;;;;;;;16.68;40.53;94949.28;5129641;27;20196;-49
2023/05/03 00:58:28;;;;;;;2.40;2.20;;;;;;;16.54;40.62;94919.81;5130282;27;20185;-48
2023/05/03 01:00:55;;;;;;;2.50;2.30;;;;;;;16.63;40.36;94938.66;5129931;27;20188;-48
2023/05/03 01:03:22;;;;;;;2.30;2.07;;;;;;;16.61;40.50;94934.63;5129599;27;20211;-48
2023/05/03 01:06:01;;;;;;;3.50;2.27;;;;;;;16.59;40.60;94923.69;5129725;27;20234;-50
2023/05/03 01:08:33;;;;;;;2.30;2.10;;;;;;;16.56;40.50;94924.81;5129411;27;20199;-49
2023/05/03 01:11:07;;;;;;;2.33;2.13;;;;;;;16.48;40.50;94893.88;5129856;27;20564;-49
2023/05/03 01:13:42;;;;;;;5.03;2.43;;;;;;;16.47;40.61;94900.81;5129472;27;20228;-48
2023/05/03 01:16:17;;;;;;;2.40;2.20;;;;;;;16.49;40.60;94914.38;5129722;27;20647;-50
2023/05/03 01:18:47;;;;;;;2.33;2.20;;;;;;;16.47;40.53;94894.84;5129854;27;20194;-48
2023/05/03 01:21:17;;;;;;;3.17;2.43;;;;;;;16.36;40.62;94883.09;5131922;27;20184;-50
2023/05/03 01:23:55;;;;;;;3.33;2.30;;;;;;;16.43;40.42;94899.53;5129562;27;20254;-49
2023/05/03 01:26:24;;;;;;;2.13;2.00;;;;;;;16.42;40.46;94897.13;5129351;28;20256;-48
2023/05/03 01:28:51;;;;;;;2.20;2.00;;;;;;;16.40;40.67;94892.13;5130635;27;20241;-48
2023/05/03 01:31:23;;;;;;;3.13;2.20;;;;;;;16.39;40.53;94895.69;5129960;27;20180;-49
2023/05/03 01:34:02;;;;;;;4.17;2.57;;;;;;;16.35;40.66;94883.28;5131202;27;20247;-48
2023/05/03 01:36:32;;;;;;;2.20;1.70;;;;;;;16.33;40.30;94870.56;5130748;27;20237;-48
2023/05/03 01:39:02;;;;;;;2.27;2.07;;;;;;;16.34;40.71;94879.91;5129935;27;20722;-50
2023/05/03 01:41:32;;;;;;;6.43;2.17;;;;;;;16.33;40.62;94872.34;5129818;27;20191;-49
2023/05/03 01:44:00;;;;;;;2.60;2.00;;;;;;;16.19;40.70;94853.19;5130057;28;20192;-48
2023/05/03 01:46:27;;;;;;;2.13;2.00;;;;;;;16.29;40.56;94877.81;5129692;28;20188;-48
2023/05/03 01:48:53;;;;;;;2.47;2.20;;;;;;;16.27;40.66;94861.69;5130117;28;20195;-48
2023/05/03 01:51:20;;;;;;;2.97;2.07;;;;;;;16.25;40.58;94865.41;5129744;28;20259;-49
2023/05/03 01:53:47;;;;;;;4.53;2.30;;;;;;;16.22;40.77;94858.00;5130075;28;20660;-49
2023/05/03 01:56:15;;;;;;;2.23;2.03;;;;;;;16.16;40.81;94849.16;5129738;28;20622;-49
2023/05/03 01:58:43;;;;;;;2.03;1.93;;;;;;;16.18;40.76;94856.72;5130240;27;20184;-49
2023/05/03 02:01:10;;;;;;;3.10;2.50;;;;;;;16.16;40.96;94850.94;5129909;27;20188;-48
2023/05/03 02:03:37;;;;;;;8.47;2.53;;;;;;;16.13;40.73;94851.28;5129517;27;20199;-48
2023/05/03 02:06:04;;;;;;;3.57;1.93;;;;;;;16.10;40.76;94834.34;5130049;27;20198;-49
2023/05/03 02:08:31;;;;;;;2.70;2.37;;;;;;;15.60;40.75;94765.84;5129844;27;20253;-50
2023/05/03 02:10:57;;;;;;;3.40;2.00;;;;;;;16.06;40.88;94840.81;5129734;27;20177;-48
2023/05/03 02:13:24;;;;;;;3.00;1.90;;;;;;;16.02;41.13;94830.03;5129700;28;20231;-48
2023/05/03 02:15:53;;;;;;;2.07;1.77;;;;;;;16.01;41.13;94833.56;5129655;28;20191;-49
2023/05/03 02:18:21;;;;;;;2.20;2.10;;;;;;;15.97;40.98;94824.56;5131121;27;20189;-47
2023/05/03 02:20:48;;;;;;;2.67;2.03;;;;;;;15.96;41.04;94825.53;5132793;27;20184;-49
2023/05/03 02:23:14;;;;;;;6.63;2.63;;;;;;;15.91;41.10;94816.69;5133332;27;20673;-49
2023/05/03 02:25:41;;;;;;;4.90;2.63;;;;;;;15.91;41.20;94832.97;5132996;27;20185;-47
2023/05/03 02:28:08;;;;;;;3.83;2.00;;;;;;;15.90;41.24;94836.53;5132867;27;20188;-47
2023/05/03 02:30:35;;;;;;;2.67;2.10;;;;;;;15.90;41.41;94840.91;5132865;27;20191;-47
2023/05/03 02:33:03;;;;;;;2.63;2.00;;;;;;;15.86;41.15;94832.69;5132722;27;20224;-48
2023/05/03 02:35:30;;;;;;;3.87;2.00;;;;;;;15.82;41.27;94836.56;5132612;27;20184;-49
2023/05/03 02:37:57;;;;;;;3.27;2.40;;;;;;;15.83;41.46;94848.47;5133126;27;20184;-49
2023/05/03 02:40:24;;;;;;;3.23;2.00;;;;;;;15.80;41.49;94856.53;5132188;27;20241;-48
2023/05/03 02:42:51;;;;;;;2.57;2.30;;;;;;;15.80;41.29;94851.38;5132518;27;20248;-48
2023/05/03 02:45:18;;;;;;;2.47;2.20;;;;;;;15.78;41.37;94856.72;5132351;27;20188;-48
2023/05/03 02:47:44;;;;;;;2.40;2.17;;;;;;;15.77;41.44;94855.09;5132448;27;20279;-48
2023/05/03 02:50:13;;;;;;;2.80;2.20;;;;;;;15.74;41.62;94845.13;5132625;27;20188;-48
2023/05/03 02:52:39;;;;;;;2.27;2.00;;;;;;;15.75;41.45;94856.22;5132730;27;20188;-50
2023/05/03 02:55:07;;;;;;;3.17;2.10;;;;;;;15.75;41.56;94846.72;5132547;27;20180;-48
2023/05/03 02:57:33;;;;;;;3.80;2.30;;;;;;;15.75;41.23;94851.06;5133008;27;20191;-48
2023/05/03 03:00:00;;;;;;;5.63;2.67;;;;;;;15.75;41.67;94849.31;5132538;27;20180;-47
2023/05/03 03:02:27;;;;;;;2.40;2.20;;;;;;;15.74;41.48;94849.47;5132691;27;20192;-50
2023/05/03 03:04:54;;;;;;;2.70;2.40;;;;;;;15.73;41.83;94869.31;5132297;27;20207;-49
2023/05/03 03:07:22;;;;;;;5.03;2.37;;;;;;;15.69;41.54;94855.13;5131920;27;20295;-49
2023/05/03 03:09:49;;;;;;;3.33;2.30;;;;;;;15.72;41.68;94856.59;5132480;27;20185;-48
2023/05/03 03:12:16;;;;;;;2.13;2.00;;;;;;;15.72;41.57;94862.53;5132556;27;20193;-48
2023/05/03 03:14:44;;;;;;;2.23;2.00;;;;;;;15.72;41.58;94854.81;5131882;27;20716;-48
2023/05/03 03:17:11;;;;;;;2.63;2.43;;;;;;;15.56;41.47;94839.34;5131302;27;20221;-49
2023/05/03 03:19:39;;;;;;;2.97;2.13;;;;;;;15.73;41.78;94869.31;5131487;27;20200;-48
2023/05/03 03:22:05;;;;;;;5.17;2.00;;;;;;;15.68;41.70;94866.41;5131437;27;20192;-47
2023/05/03 03:24:34;;;;;;;2.47;2.27;;;;;;;15.65;41.77;94856.41;5131798;27;20228;-48
2023/05/03 03:27:01;;;;;;;4.33;2.63;;;;;;;15.54;41.92;94843.84;5131476;27;20258;-49
2023/05/03 03:29:31;;;;;;;2.37;2.00;;;;;;;15.73;41.80;94868.50;5130942;27;20176;-50
2023/05/03 03:31:58;;;;;;;3.10;2.27;;;;;;;15.72;41.72;94869.47;5131117;27;20200;-48
2023/05/03 03:34:25;;;;;;;3.53;2.30;;;;;;;15.72;41.66;94878.00;5132155;27;20247;-51
2023/05/03 03:36:52;;;;;;;3.27;2.20;;;;;;;15.69;41.89;94883.50;5131469;27;20262;-48
2023/05/03 03:39:19;;;;;;;3.60;2.20;;;;;;;15.73;41.82;94891.72;5131199;27;20594;-48
2023/05/03 03:41:47;;;;;;;2.37;2.17;;;;;;;15.71;41.96;94880.72;5130951;27;20192;-48
2023/05/03 03:44:14;;;;;;;2.90;2.33;;;;;;;15.73;41.86;94881.38;5131660;27;20192;-48
2023/05/03 03:46:41;;;;;;;2.20;2.00;;;;;;;15.72;41.92;94878.00;5131438;27;20196;-48
2023/05/03 03:49:07;;;;;;;2.13;1.90;;;;;;;15.69;41.90;94870.59;5131325;27;20207;-49
2023/05/03 03:51:34;;;;;;;2.30;2.07;;;;;;;15.71;41.76;94871.22;5131099;27;20249;-48
2023/05/03 03:54:01;;;;;;;2.63;2.13;;;;;;;15.28;41.98;94831.16;5130674;27;20295;-48
2023/05/03 03:56:28;;;;;;;5.13;2.90;;;;;;;15.73;41.89;94904.59;5131638;27;20180;-48
2023/05/03 03:58:56;;;;;;;2.53;2.33;;;;;;;15.72;41.95;94898.63;5130893;27;20203;-48
2023/05/03 04:01:23;;;;;;;2.50;2.30;;;;;;;15.72;41.82;94906.38;5130997;27;20252;-49
2023/05/03 04:03:50;;;;;;;4.60;2.33;;;;;;;15.73;42.14;94904.59;5130801;27;20193;-47
2023/05/03 04:06:16;;;;;;;2.40;2.20;;;;;;;15.72;41.96;94918.47;5132021;27;20192;-49
2023/05/03 04:08:43;;;;;;;3.93;2.43;;;;;;;15.73;42.06;94914.91;5131118;27;20188;-49
2023/05/03 04:11:11;;;;;;;2.60;2.40;;;;;;;15.71;42.06;94920.22;5131217;27;20706;-47
2023/05/03 04:13:38;;;;;;;2.53;2.33;;;;;;;15.72;42.13;94908.16;5130881;27;20211;-49
2023/05/03 04:16:07;;;;;;;2.63;2.43;;;;;;;15.73;42.07;94909.75;5130814;27;20199;-48
2023/05/03 04:18:34;;;;;;;5.73;2.77;;;;;;;15.70;42.06;94934.09;5130070;27;20200;-48
2023/05/03 04:21:01;;;;;;;2.50;2.30;;;;;;;15.67;41.95;94908.66;5130278;27;20184;-48
2023/05/03 04:23:28;;;;;;;2.67;2.47;;;;;;;15.64;42.22;94901.22;5130764;27;20240;-48
2023/05/03 04:25:56;;;;;;;3.10;2.53;;;;;;;15.74;41.96;94930.22;5130354;27;20191;-48
2023/05/03 04:28:24;;;;;;;2.60;2.40;;;;;;;15.60;42.14;94917.97;5130831;27;20184;-49
2023/05/03 04:30:52;;;;;;;3.20;2.50;;;;;;;15.76;42.19;94933.44;5130430;27;20630;-48
2023/05/03 04:33:20;;;;;;;2.60;2.37;;;;;;;15.75;42.19;94933.59;5131713;27;20216;-49
2023/05/03 04:35:49;;;;;;;2.60;2.40;;;;;;;15.76;42.04;94948.13;5131925;27;20282;-48
2023/05/03 04:38:17;;;;;;;3.60;2.50;;;;;;;15.76;41.93;94948.91;5131853;27;20268;-49
2023/05/03 04:40:44;;;;;;;2.30;2.10;;;;;;;15.76;42.32;94956.66;5129652;27;20223;-49
2023/05/03 04:43:11;;;;;;;4.33;2.30;;;;;;;15.77;42.18;94952.31;5130882;27;20201;-49
2023/05/03 04:45:38;;;;;;;7.23;2.73;;;;;;;15.86;50.58;94966.00;5130019;27;20279;-47
2023/05/03 04:48:05;;;;;;;18.03;3.20;;;;;;;16.24;68.79;94938.66;5129683;27;20200;-47
2023/05/03 04:50:34;;;;;;;3.60;2.30;;;;;;;16.87;66.32;94963.59;5129860;27;20249;-49
2023/05/03 04:53:01;;;;;;;4.83;2.27;;;;;;;17.21;64.50;94955.47;5129998;27;20864;-48
2023/05/03 04:55:28;;;;;;;3.80;2.37;;;;;;;17.49;63.40;94953.19;5130038;27;20583;-48
2023/05/03 04:57:55;;;;;;;2.77;2.47;;;;;;;17.70;60.56;94954.28;5129699;27;20187;-48
2023/05/03 05:00:22;;;;;;;3.43;2.83;;;;;;;17.98;60.54;94965.72;5129686;27;20196;-49
2023/05/03 05:02:49;;;;;;;2.60;2.00;;;;;;;18.18;60.39;94962.63;5129496;27;20180;-47
2023/05/03 05:05:16;;;;;;;10.13;2.70;;;;;;;18.35;58.65;94958.03;5130368;27;20203;-47
2023/05/03 05:07:44;;;;;;;4.37;2.30;;;;;;;18.52;59.51;94985.38;5130072;27;20295;-48
2023/05/03 05:10:11;;;;;;;6.03;2.53;;;;;;;18.73;59.34;94995.84;5129900;27;20706;-48
2023/05/03 05:12:38;;;;;;;9.57;2.70;;;;;;;18.95;58.51;95017.44;5129650;27;20277;-50
2023/05/03 05:15:06;;;;;;;3.93;2.67;;;;;;;19.14;57.58;94995.34;5129619;27;20704;-47
2023/05/03 05:17:33;;;;;;;6.50;2.43;;;;;;;18.77;56.70;94921.94;5130147;27;20180;-47
2023/05/03 05:19:59;;;;;;;3.83;2.20;;;;;;;19.40;56.02;94988.81;5129654;27;20199;-48
2023/05/03 05:22:26;;;;;;;4.73;2.40;;;;;;;19.43;55.37;94980.66;5129928;27;20189;-49
2023/05/03 05:24:54;;;;;;;4.40;2.23;;;;;;;19.67;54.92;95010.66;5129645;27;20226;-48
2023/05/03 05:27:21;;;;;;;2.70;2.13;;;;;;;19.76;54.01;95007.72;5129714;27;20221;-48
2023/05/03 05:29:48;;;;;;;10.13;2.97;;;;;;;19.80;53.13;95002.97;5129689;27;20199;-49
2023/05/03 05:32:15;;;;;;;11.23;6.27;;;;;;;19.76;52.68;94999.16;5129645;27;20188;-50
2023/05/03 05:34:42;;;;;;;7.73;4.73;;;;;;;19.65;48.76;95016.03;5129863;27;20220;-50
2023/05/03 05:37:09;;;;;;;9.70;4.53;;;;;;;19.43;48.22;95019.56;5129739;27;20287;-51
2023/05/03 05:39:36;;;;;;;7.70;4.20;;;;;;;19.25;47.56;95018.16;5129949;27;20636;-48
2023/05/03 05:42:04;;;;;;;6.30;3.90;;;;;;;19.05;46.99;95023.16;5129558;27;20687;-49
2023/05/03 05:44:31;;;;;;;5.10;3.43;;;;;;;18.98;46.71;95024.84;5129789;27;20212;-48
2023/05/03 05:46:58;;;;;;;4.67;3.17;;;;;;;18.88;46.73;95028.72;5129747;27;20214;-50
2023/05/03 05:49:25;;;;;;;3.33;2.77;;;;;;;18.78;46.30;95029.81;5129599;27;20184;-49
2023/05/03 05:51:52;;;;;;;5.60;3.10;;;;;;;18.69;45.67;95032.63;5130443;27;20664;-49
2023/05/03 05:54:18;;;;;;;3.70;3.17;;;;;;;18.61;45.32;95020.59;5133414;27;20938;-49
2023/05/03 05:56:45;;;;;;;3.87;3.03;;;;;;;18.49;45.27;95033.16;5133570;27;20660;-48
2023/05/03 05:59:13;;;;;;;2.90;2.70;;;;;;;18.38;45.17;95020.66;5133367;27;20517;-49
2023/05/03 06:01:43;;;;;;;2.73;2.53;;;;;;;18.27;45.00;95041.81;5134157;27;20613;-49
2023/05/03 06:04:10;;;;;;;4.30;2.63;;;;;;;17.90;44.84;94990.84;5133409;27;20192;-48
2023/05/03 06:06:37;;;;;;;3.57;2.70;;;;;;;18.02;44.71;95021.31;5133837;27;20211;-49
2023/05/03 06:09:03;;;;;;;2.83;2.60;;;;;;;17.50;44.66;94949.59;5133284;27;20184;-49
2023/05/03 06:11:30;;;;;;;3.20;2.90;;;;;;;17.84;44.69;95022.63;5137252;27;20204;-49
2023/05/03 06:13:58;;;;;;;3.67;3.20;;;;;;;17.78;44.74;95027.47;5133392;27;20224;-50
2023/05/03 06:16:26;;;;;;;4.37;2.40;;;;;;;17.71;44.88;95021.38;5134952;27;20184;-49
2023/05/03 06:18:53;;;;;;;3.00;2.70;;;;;;;17.67;44.75;95016.72;5133139;27;20199;-49
2023/05/03 06:21:19;;;;;;;3.30;2.60;;;;;;;17.62;44.76;95014.66;5133088;27;20193;-48
2023/05/03 06:23:47;;;;;;;9.90;2.40;;;;;;;17.61;44.70;95015.63;5133104;27;20224;-48
2023/05/03 06:26:16;;;;;;;4.83;2.20;;;;;;;17.61;44.74;95015.63;5132675;27;20188;-50
2023/05/03 06:28:43;;;;;;;2.40;2.20;;;;;;;17.59;44.54;95004.66;5133074;27;20177;-50
2023/05/03 06:31:10;;;;;;;4.03;2.27;;;;;;;17.64;44.39;95004.94;5132824;27;20283;-49
2023/05/03 06:33:38;;;;;;;3.37;2.70;;;;;;;17.65;44.62;94997.97;5132719;27;20559;-50
2023/05/03 06:36:07;;;;;;;2.77;2.40;;;;;;;17.67;44.40;95004.59;5132618;27;20192;-48
2023/05/03 06:38:33;;;;;;;3.67;2.40;;;;;;;17.71;44.52;94999.88;5133006;27;20252;-49
2023/05/03 06:41:00;;;;;;;2.67;2.30;;;;;;;17.75;44.40;94975.31;5132299;27;20556;-49
2023/05/03 06:43:27;;;;;;;9.63;2.70;;;;;;;17.82;44.10;94983.16;5132745;27;20241;-49
2023/05/03 06:45:54;;;;;;;5.00;2.50;;;;;;;17.88;44.09;94987.66;5132524;27;20219;-49
2023/05/03 06:48:21;;;;;;;2.40;2.10;;;;;;;17.93;44.07;94968.03;5132774;27;20184;-49
2023/05/03 06:50:49;;;;;;;4.13;2.73;;;;;;;17.95;43.72;94965.25;5132462;27;20249;-49
2023/05/03 06:53:16;;;;;;;3.07;2.77;;;;;;;17.91;43.88;94958.81;5132539;27;20192;-49
2023/05/03 06:55:44;;;;;;;3.33;2.47;;;;;;;17.99;43.98;94963.91;5132440;27;20226;-49
2023/05/03 06:58:11;;;;;;;3.17;2.40;;;;;;;18.01;43.87;94956.81;5132302;27;20279;-50
2023/05/03 07:00:39;;;;;;;3.73;2.60;;;;;;;17.85;43.81;94949.97;5132524;27;20191;-50
2023/05/03 07:03:06;;;;;;;3.83;2.60;;;;;;;18.02;43.69;94954.03;5131768;27;20194;-50
2023/05/03 07:05:33;;;;;;;6.00;2.50;;;;;;;17.97;43.51;94948.59;5132282;27;20336;-49
2023/05/03 07:08:01;;;;;;;4.50;2.60;;;;;;;18.04;43.66;94949.47;5132114;27;20203;-49
2023/05/03 07:10:29;;;;;;;4.50;2.60;;;;;;;18.07;43.63;94961.25;5132188;27;20196;-49
2023/05/03 07:12:56;;;;;;;4.50;2.63;;;;;;;18.10;43.54;94955.72;5132105;27;20291;-50
2023/05/03 07:15:23;;;;;;;2.90;2.60;;;;;;;18.12;43.49;94961.53;5132025;27;20223;-50
2023/05/03 07:17:50;;;;;;;7.37;2.20;;;;;;;18.09;43.27;94956.72;5132054;27;20192;-48
2023/05/03 07:20:17;;;;;;;3.03;2.70;;;;;;;18.21;43.18;94952.69;5132411;27;20295;-49
2023/05/03 07:22:44;;;;;;;2.57;2.37;;;;;;;18.27;43.17;94957.16;5131595;27;20267;-49
2023/05/03 07:25:13;;;;;;;2.37;2.17;;;;;;;18.36;43.13;94963.06;5131812;27;20680;-50
2023/05/03 07:27:40;;;;;;;2.63;2.40;;;;;;;18.44;43.14;94962.97;5131686;27;20189;-51
2023/05/03 07:30:09;;;;;;;3.33;2.40;;;;;;;18.58;42.91;94992.44;5132081;27;20188;-49
2023/05/03 07:32:36;;;;;;;2.73;2.40;;;;;;;18.59;42.58;94973.31;5132147;27;20241;-50
2023/05/03 07:35:03;;;;;;;5.20;2.53;;;;;;;18.77;42.68;94991.91;5131705;27;20640;-50
2023/05/03 07:37:30;;;;;;;4.87;2.60;;;;;;;18.87;42.49;94989.06;5132014;27;20192;-49
2023/05/03 07:39:57;;;;;;;3.37;2.60;;;;;;;18.97;42.28;94993.94;5131473;27;20208;-50
2023/05/03 07:42:25;;;;;;;5.57;3.07;;;;;;;19.07;42.35;94986.66;5131886;27;20187;-50
2023/05/03 07:44:54;;;;;;;6.33;2.83;;;;;;;19.18;42.19;94985.41;5130813;27;20231;-48
2023/05/03 07:47:21;;;;;;;3.07;2.60;;;;;;;19.25;42.10;94992.25;5131856;27;20196;-52
2023/05/03 07:49:49;;;;;;;5.07;2.90;;;;;;;19.30;41.96;95005.47;5131152;27;20275;-49
2023/05/03 07:52:16;;;;;;;5.17;2.70;;;;;;;19.38;42.04;94991.56;5132029;27;20271;-49
2023/05/03 07:54:44;;;;;;;3.10;2.80;;;;;;;19.46;41.85;94999.25;5132706;27;20232;-49
2023/05/03 07:57:11;;;;;;;4.23;2.70;;;;;;;19.54;41.84;94990.53;5131530;27;20180;-49
2023/05/03 07:59:39;;;;;;;4.17;2.67;;;;;;;19.64;41.60;95000.63;5131479;27;20193;-48
2023/05/03 08:02:06;;;;;;;2.93;2.73;;;;;;;19.72;41.67;94990.13;5131467;27;20184;-50
2023/05/03 08:04:33;;;;;;;3.50;2.50;;;;;;;19.78;41.71;94986.81;5131073;27;20193;-50
2023/05/03 08:07:00;;;;;;;3.63;2.70;;;;;;;19.96;41.50;95007.91;5131209;27;20199;-50
2023/05/03 08:09:28;;;;;;;3.90;2.40;;;;;;;20.08;41.34;95007.38;5130736;27;20215;-49
2023/05/03 08:11:55;;;;;;;4.40;2.70;;;;;;;20.08;41.29;94974.44;5130960;27;20285;-48
2023/05/03 08:14:22;;;;;;;4.27;2.60;;;;;;;20.34;40.86;94994.59;5130802;27;20660;-48
2023/05/03 08:16:50;;;;;;;3.20;2.50;;;;;;;20.52;41.04;94999.31;5130582;27;20196;-49
2023/05/03 08:19:17;;;;;;;2.93;2.17;;;;;;;20.75;40.59;95001.63;5131711;27;20192;-49
2023/05/03 08:21:45;;;;;;;5.13;2.60;;;;;;;21.04;40.54;95000.56;5130661;27;20204;-50
2023/05/03 08:24:12;;;;;;;2.43;2.17;;;;;;;21.34;40.38;95003.69;5131037;27;20720;-51
2023/05/03 08:26:39;;;;;;;3.70;2.63;;;;;;;21.62;40.19;95010.53;5130680;27;20185;-50
2023/05/03 08:29:07;;;;;;;6.00;3.00;;;;;;;21.91;39.99;95009.38;5130775;27;20192;-51
2023/05/03 08:31:33;;;;;;;3.10;2.28;;;;;;;22.20;39.71;95006.41;5129183;27;20253;-49
2023/05/03 08:34:02;;;;;;;4.88;2.60;;;;;;;22.55;39.82;94998.31;5130457;27;20192;-49
2023/05/03 08:36:30;;;;;;;3.47;2.63;;;;;;;22.92;39.25;94996.81;5130351;27;20299;-49
2023/05/03 08:38:57;;;;;;;4.18;2.42;;;;;;;23.36;38.83;95015.28;5130589;27;20204;-49
2023/05/03 08:41:28;;;;;;;4.32;2.30;;;;;;;23.80;38.75;95017.06;5130410;27;20180;-49
2023/05/03 08:43:56;;;;;;;3.70;2.63;;;;;;;24.23;38.42;95000.66;5131090;27;20188;-48
2023/05/03 08:46:24;;;;;;;4.05;2.65;;;;;;;24.66;37.93;94989.41;5130727;27;20200;-48
2023/05/03 08:48:52;;;;;;;4.43;2.50;;;;;;;25.03;38.05;94998.81;5130908;27;20196;-49
2023/05/03 08:51:21;;;;;;;3.55;2.45;;;;;;;25.18;37.46;94984.59;5130095;27;20191;-50
2023/05/03 08:53:49;;;;;;;2.40;2.20;;;;;;;25.48;37.38;95006.34;5130434;27;20274;-49
2023/05/03 08:56:21;;;;;;;2.65;2.30;;;;;;;25.57;37.54;95011.28;5130104;27;20619;-51
2023/05/03 08:58:48;;;;;;;3.58;2.20;;;;;;;25.56;37.67;95010.47;5130363;27;20184;-49
2023/05/03 09:01:15;;;;;;;2.33;2.13;;;;;;;25.52;37.50;95011.94;5130512;27;20180;-48
2023/05/03 09:03:49;;;;;;;2.30;2.20;;;;;;;25.46;37.61;95010.19;5130250;27;20192;-48
2023/05/03 09:06:21;;;;;;;2.83;2.38;;;;;;;25.06;37.72;94968.00;5130132;27;20192;-49
2023/05/03 09:08:48;;;;;;;2.60;2.40;;;;;;;25.25;37.94;95003.63;5130595;27;20215;-51
2023/05/03 09:11:23;;;;;;;2.55;2.22;;;;;;;25.35;37.56;95019.63;5130049;27;20199;-49
2023/05/03 09:13:51;;;;;;;2.45;2.25;;;;;;;25.42;37.40;95003.81;5130285;27;20187;-50
2023/05/03 09:16:26;;;;;;;4.32;2.80;;;;;;;25.56;37.40;95013.09;5130245;27;20212;-49
2023/05/03 09:19:05;;;;;;;2.65;2.45;;;;;;;25.81;36.68;95001.66;5130444;27;20226;-50
2023/05/03 09:21:33;;;;;;;2.85;2.20;;;;;;;26.06;36.85;94991.00;5130114;27;20195;-50
2023/05/03 09:24:02;;;;;;;4.63;2.55;;;;;;;26.23;36.44;94995.34;5130014;27;20220;-50
2023/05/03 09:26:32;;;;;;;2.78;2.28;;;;;;;26.36;36.51;94988.28;5131106;27;20218;-47
2023/05/03 09:29:00;;;;;;;2.33;2.13;;;;;;;26.38;36.12;94987.03;5137625;27;20176;-49
2023/05/03 09:31:27;;;;;;;2.83;2.38;;;;;;;26.38;36.45;94983.59;5137719;27;20184;-49
2023/05/03 09:33:54;;;;;;;3.58;2.53;;;;;;;26.34;36.45;94972.78;5137249;27;20195;-50
2023/05/03 09:36:22;;;;;;;3.05;2.75;;;;;;;26.35;36.27;94981.44;5136873;27;20227;-48
2023/05/03 09:38:51;;;;;;;3.85;2.50;;;;;;;26.40;35.97;94963.97;5136615;27;20572;-49
2023/05/03 09:41:27;;;;;;;2.40;2.20;;;;;;;26.45;36.01;94965.94;5137035;27;20621;-50
2023/05/03 09:43:55;;;;;;;2.70;2.50;;;;;;;26.34;35.75;94948.34;5136711;27;20227;-53
2023/05/03 09:46:24;;;;;;;4.30;2.30;;;;;;;26.36;35.59;94943.69;5137198;27;20195;-50
2023/05/03 09:48:54;;;;;;;3.55;2.55;;;;;;;26.47;35.81;94958.66;5136636;27;20284;-50
2023/05/03 09:51:23;;;;;;;3.60;2.10;;;;;;;26.58;35.46;94955.19;5136670;27;20684;-50
2023/05/03 09:53:52;;;;;;;2.85;2.13;;;;;;;26.72;35.04;94953.13;5136558;27;20215;-50
2023/05/03 09:56:25;;;;;;;2.83;2.38;;;;;;;26.83;35.34;94954.13;5136881;27;20243;-50
2023/05/03 09:58:52;;;;;;;2.35;2.15;;;;;;;26.86;35.18;94941.34;5136339;27;20271;-50
2023/05/03 10:01:21;;;;;;;3.05;2.40;;;;;;;26.86;35.29;94945.81;5136356;27;20641;-49
2023/05/03 10:03:50;;;;;;;2.40;2.20;;;;;;;26.42;34.87;94888.47;5136248;27;20253;-50
2023/05/03 10:06:25;;;;;;;2.33;2.13;;;;;;;26.68;35.01;94946.72;5136472;27;20184;-49
2023/05/03 10:09:00;;;;;;;2.58;2.15;;;;;;;26.55;35.47;94947.78;5135024;27;20195;-49
2023/05/03 10:11:29;;;;;;;3.13;2.83;;;;;;;26.35;35.25;94929.00;5136756;27;20211;-49
2023/05/03 10:13:56;;;;;;;2.38;2.20;;;;;;;26.39;35.43;94953.72;5136194;27;20214;-50
2023/05/03 10:16:27;;;;;;;2.72;2.53;;;;;;;26.43;34.84;94939.91;5137295;27;20228;-50
2023/05/03 10:19:00;;;;;;;2.58;2.28;;;;;;;26.51;35.00;94936.16;5138529;27;20184;-49
2023/05/03 10:21:38;;;;;;;3.53;2.60;;;;;;;26.62;35.13;94924.84;5136752;27;20272;-50
2023/05/03 10:24:14;;;;;;;2.53;2.33;;;;;;;26.69;35.05;94919.50;5136031;27;20223;-49
2023/05/03 10:26:41;;;;;;;2.63;2.10;;;;;;;26.64;35.14;94914.94;5136117;27;20184;-48
2023/05/03 10:29:47;;;;;;;2.67;2.40;;;;;;;26.59;34.93;94893.03;5136086;27;20644;-48
2023/05/03 10:32:32;;;;;;;3.00;2.40;;;;;;;26.63;35.15;94899.41;5136087;27;20219;-49
2023/05/03 10:35:04;;;;;;;3.03;2.60;;;;;;;26.67;35.08;94903.16;5134937;27;20203;-50
2023/05/03 10:37:34;;;;;;;3.47;2.50;;;;;;;26.71;34.99;94899.84;5136529;27;20188;-50
2023/05/03 10:40:12;;;;;;;3.20;2.50;;;;;;;26.82;34.66;94894.81;5131496;27;20649;-50
2023/05/03 10:42:40;;;;;;;3.50;2.90;;;;;;;26.90;34.92;94900.47;5132949;27;20629;-51
2023/05/03 10:45:10;;;;;;;3.28;2.53;;;;;;;26.76;34.59;94870.28;5132763;27;20184;-49
2023/05/03 10:47:39;;;;;;;2.60;2.40;;;;;;;26.91;34.78;94893.41;5132971;27;20342;-49
2023/05/03 10:50:25;;;;;;;3.90;2.58;;;;;;;26.85;34.91;94887.25;5132601;27;20184;-51
2023/05/03 10:52:52;;;;;;;2.63;2.40;;;;;;;26.65;34.95;94865.88;5132750;27;20188;-49
2023/05/03 10:55:23;;;;;;;2.80;2.38;;;;;;;26.69;35.08;94888.78;5132434;27;20216;-49
2023/05/03 10:57:53;;;;;;;3.00;2.72;;;;;;;26.59;34.90;94899.06;5132746;27;20649;-49
2023/05/03 11:00:28;;;;;;;3.65;2.42;;;;;;;26.45;35.28;94890.66;5132295;27;20192;-51
2023/05/03 11:03:17;;;;;;;3.72;2.35;;;;;;;26.33;35.17;94895.09;5133971;27;20187;-49
2023/05/03 11:05:45;;;;;;;3.05;2.72;;;;;;;26.15;35.53;94882.94;5133364;27;20194;-49
2023/05/03 11:08:13;;;;;;;2.88;2.30;;;;;;;26.13;35.70;94879.75;5132872;27;20277;-49
2023/05/03 11:10:42;;;;;;;4.53;2.50;;;;;;;26.11;35.59;94886.25;5132244;27;20192;-49
2023/05/03 11:13:08;;;;;;;3.08;2.30;;;;;;;25.94;35.56;94860.72;5132547;27;20188;-49
2023/05/03 11:15:35;;;;;;;2.65;2.38;;;;;;;26.08;35.31;94881.47;5131885;27;20707;-50
2023/05/03 11:18:02;;;;;;;4.57;2.70;;;;;;;26.15;35.21;94882.94;5132268;27;20188;-50
2023/05/03 11:20:30;;;;;;;5.30;2.92;;;;;;;26.16;35.54;94886.34;5131961;27;20191;-49
2023/05/03 11:22:57;;;;;;;3.63;2.10;;;;;;;26.12;35.38;94882.59;5132322;27;20187;-49
2023/05/03 11:25:23;;;;;;;2.85;2.55;;;;;;;26.07;35.55;94878.03;5131571;27;20349;-51
2023/05/03 11:27:52;;;;;;;2.70;2.50;;;;;;;26.03;35.36;94882.16;5132207;27;20188;-50
2023/05/03 11:30:18;;;;;;;2.40;2.20;;;;;;;25.95;35.57;94866.75;5131844;27;20188;-49
2023/05/03 11:32:45;;;;;;;3.13;2.53;;;;;;;25.94;35.58;94859.94;5131933;27;20203;-51
2023/05/03 11:35:14;;;;;;;3.25;2.20;;;;;;;25.91;35.37;94870.91;5131839;27;20184;-51
2023/05/03 11:37:42;;;;;;;2.80;2.60;;;;;;;25.91;35.67;94866.44;5131830;27;20653;-50
2023/05/03 11:40:15;;;;;;;3.20;2.47;;;;;;;25.92;35.34;94865.41;5131829;27;20185;-49